• Join FlightAware (Why Join?)
  • Login
  • US Flag 
05:42AM EDT


 

Airport Tracker/Info


-or-


 

Live Flight TrackerFlight Track Log ✈ N100PM ✈ 30-Oct-2013 ✈ KMDD - KELP

Flight Track Log - Related Links

Times and Time Zones

All times are in EDT time to prevent confusion due to time zone crossing. See the N100PM flight status page for this flight to view local times or setup timezone preferences in your user account.

Time Position Orientation Groundspeed Altitude Reporting Facility
EDT Latitude Longitude Course Direction KTS MPH feet Rate Location/Type
11:18AM 31.8844 -102.6119 262° West 97 112 10,000  Level Fort Worth Center
11:19AM 31.8811 -102.6386 262° West 97 112 10,000  Level Fort Worth Center
11:20AM 31.8822 -102.6656 273° West 92 106 10,000  Level Fort Worth Center
11:21AM 31.8789 -102.6925 262° West 87 100 10,000  Level Fort Worth Center
11:22AM 31.8797 -102.7217 254° West 87 100 10,100  Climbing Fort Worth Center
11:23AM 31.8786 -102.7486 267° West 87 100 10,100  Level Fort Worth Center
11:24AM 31.8794 -102.7781 272° West 87 100 10,100  Level Fort Worth Center
11:25AM 31.8783 -102.8050 267° West 87 100 10,100  Level Fort Worth Center
11:26AM 31.8772 -102.8342 267° West 87 100 10,100  Level Fort Worth Center
11:27AM 31.8739 -102.8608 262° West 87 100 10,100  Level Fort Worth Center
11:28AM 31.8728 -102.8878 267° West 87 100 10,100  Level Fort Worth Center
11:29AM 31.8736 -102.9169 272° West 87 100 10,100  Level Fort Worth Center
11:30AM 31.8722 -102.9439 267° West 87 100 10,100  Level Fort Worth Center
11:31AM 31.8733 -102.9708 273° West 87 100 10,100  Level Fort Worth Center
11:32AM 31.8742 -103.0003 272° West 87 100 10,100  Level Fort Worth Center
11:33AM 31.8747 -103.0322 271° West 87 100 10,100  Level Fort Worth Center
11:34AM 31.8733 -103.0614 267° West 87 100 10,100  Level Fort Worth Center
11:35AM 31.8719 -103.0906 267° West 87 100 10,100  Level Fort Worth Center
11:36AM 31.8708 -103.1200 267° West 87 100 10,100  Level Fort Worth Center
11:37AM 31.8736 -103.1494 276° West 87 100 10,100  Level Fort Worth Center
11:38AM 31.8744 -103.1789 272° West 87 100 10,100  Level Fort Worth Center
11:39AM 31.8708 -103.2081 262° West 87 100 10,100 -60 Level Fort Worth Center
11:40AM 31.8656 -103.2319 255° West 87 100 10,000 -240 Descending Fort Worth Center
11:41AM 31.8600 -103.2611 257° West 87 100 9,700 -300 Descending Fort Worth Center
11:42AM 31.8608 -103.2906 272° West 93 107 9,400 -300 Descending Fort Worth Center
11:43AM 31.8306 -103.3211 221° Southwest 102 117 9,000 -180 Descending Albuquerque Center
11:44AM 31.8056 -103.3297 196° South 95 109 9,100 60 Climbing Albuquerque Center
11:45AM 31.7836 -103.3386 199° South 88 101 9,200  Climbing Albuquerque Center
11:47AM 31.7619 -103.3569 216° Southwest 93 107 9,100 -60 Descending Albuquerque Center
11:48AM 31.7347 -103.3744 209° Southwest 94 108 9,100  Level Albuquerque Center
11:49AM 31.7122 -103.3883 208° Southwest 92 106 9,100  Level Albuquerque Center
11:50AM 31.6903 -103.4050 213° Southwest 93 107 9,100  Level Albuquerque Center
11:51AM 31.6686 -103.4233 216° Southwest 95 109 9,100  Level Albuquerque Center
11:52AM 31.6464 -103.4386 210° Southwest 93 107 9,100  Level Albuquerque Center
11:53AM 31.6264 -103.4561 217° Southwest 93 107 9,100  Level Albuquerque Center
11:54AM 31.5994 -103.4750 211° Southwest 93 107 9,100  Level Albuquerque Center
11:55AM 31.5772 -103.4925 214° Southwest 93 107 9,100  Level Albuquerque Center
11:56AM 31.5556 -103.5086 212° Southwest 93 107 9,100  Level Albuquerque Center
11:57AM 31.5339 -103.5250 213° Southwest 92 106 9,100  Level Albuquerque Center
11:58AM 31.5108 -103.5414 211° Southwest 95 109 9,100  Level Albuquerque Center
11:59AM 31.4914 -103.5586 217° Southwest 91 105 9,100  Level Albuquerque Center
12:00PM 31.4642 -103.5758 208° Southwest 93 107 9,100  Level Albuquerque Center
12:01PM 31.4697 -103.6053 282° West 93 107 9,100  Level Albuquerque Center
12:02PM 31.4711 -103.6372 273° West 97 112 9,100  Level Albuquerque Center
12:03PM 31.4736 -103.6689 275° West 98 113 9,100  Level Albuquerque Center
12:04PM 31.4756 -103.7025 274° West 102 117 9,100  Level Albuquerque Center
12:05PM 31.4781 -103.7406 274° West 99 114 9,100  Level Albuquerque Center
12:06PM 31.4808 -103.7669 277° West 93 107 9,100  Level Albuquerque Center
12:07PM 31.4836 -103.7989 276° West 96 110 9,100  Level Albuquerque Center
12:08PM 31.4819 -103.8300 266° West 96 110 9,100  Level Albuquerque Center
12:09PM 31.4853 -103.8678 276° West 97 112 9,100  Level Albuquerque Center
12:10PM 31.4858 -103.8981 271° West 95 109 9,100  Level Albuquerque Center
12:11PM 31.4886 -103.9269 276° West 92 106 9,100  Level Albuquerque Center
12:12PM 31.4917 -103.9553 277° West 89 102 9,100  Level Albuquerque Center
12:13PM 31.4928 -103.9847 273° West 91 105 9,100  Level Albuquerque Center
12:14PM 31.4931 -104.0164 271° West 95 109 9,100  Level Albuquerque Center
12:15PM 31.4958 -104.0528 275° West 94 108 9,100  Level Albuquerque Center
12:17PM 31.4972 -104.0828 273° West 94 108 9,100  Level Albuquerque Center
12:18PM 31.4978 -104.1122 271° West 92 106 9,100  Level Albuquerque Center
12:19PM 31.5019 -104.1425 279° West 93 107 9,100  Level Albuquerque Center
12:20PM 31.5025 -104.1731 271° West 95 109 9,100  Level Albuquerque Center
12:21PM 31.5053 -104.2044 276° West 96 110 9,100  Level Albuquerque Center
12:22PM 31.5067 -104.2411 273° West 95 109 9,100  Level Albuquerque Center
12:23PM 31.5089 -104.2697 275° West 91 105 9,100  Level Albuquerque Center
12:24PM 31.5119 -104.3000 277° West 92 106 9,100  Level Albuquerque Center
12:25PM 31.5125 -104.3281 271° West 89 102 9,100  Level Albuquerque Center
12:26PM 31.5136 -104.3575 273° West 90 104 9,100  Level Albuquerque Center
12:27PM 31.5150 -104.3867 273° West 90 104 9,100  Level Albuquerque Center
12:28PM 31.5169 -104.4208 274° West 88 101 9,100  Level Albuquerque Center
12:29PM 31.5183 -104.4497 273° West 88 101 9,100  Level Albuquerque Center
12:30PM 31.5203 -104.4792 274° West 90 104 9,100  Level Albuquerque Center
12:31PM 31.5222 -104.5086 274° West 91 105 9,100  Level Albuquerque Center
12:32PM 31.5247 -104.5389 276° West 92 106 9,100  Level Albuquerque Center
12:33PM 31.5256 -104.5728 272° West 89 102 9,100  Level Albuquerque Center
12:34PM 31.5272 -104.6003 274° West 86 99 9,100  Level Albuquerque Center
12:35PM 31.5289 -104.6247 275° West 80 92 9,100  Level Albuquerque Center
12:36PM 31.5303 -104.6500 274° West 78 90 9,100  Level Albuquerque Center
12:37PM 31.5325 -104.6781 275° West 84 97 9,100  Level Albuquerque Center
12:38PM 31.5344 -104.7072 274° West 89 102 9,100  Level Albuquerque Center
12:39PM 31.5356 -104.7417 272° West 89 102 9,100  Level Albuquerque Center
12:40PM 31.5350 -104.7700 269° West 88 101 9,100  Level Albuquerque Center
12:41PM 31.5361 -104.7972 273° West 85 98 9,100  Level Albuquerque Center
12:42PM 31.5389 -104.8261 276° West 88 101 9,100  Level Albuquerque Center
12:43PM 31.5394 -104.8542 271° West 88 101 9,100  Level Albuquerque Center
12:44PM 31.5422 -104.8806 277° West 84 97 9,100  Level Albuquerque Center
12:45PM 31.5439 -104.9122 274° West 81 93 9,100  Level Albuquerque Center
12:47PM 31.5461 -104.9386 276° West 81 93 9,100  Level Albuquerque Center
12:48PM 31.5478 -104.9653 274° West 82 94 9,100  Level Albuquerque Center
12:49PM 31.5492 -104.9919 274° West 82 94 9,100  Level Albuquerque Center
12:50PM 31.5497 -105.0189 271° West 83 96 9,100  Level Albuquerque Center
12:51PM 31.5519 -105.0519 275° West 84 97 9,100  Level Albuquerque Center
12:52PM 31.5525 -105.0786 271° West 83 96 9,100  Level Albuquerque Center
12:53PM 31.5536 -105.1039 273° West 80 92 9,100  Level Albuquerque Center
12:54PM 31.5556 -105.1281 275° West 76 87 9,100  Level Albuquerque Center
12:55PM 31.5564 -105.1550 272° West 80 92 9,100  Level Albuquerque Center
12:56PM 31.5578 -105.1819 273° West 82 94 9,100  Level Albuquerque Center
12:57PM 31.5597 -105.2156 274° West 85 98 9,100  Level Albuquerque Center
12:58PM 31.5617 -105.2431 275° West 85 98 9,100  Level Albuquerque Center
12:59PM 31.5622 -105.2697 271° West 82 94 9,100  Level Albuquerque Center
01:00PM 31.5628 -105.2961 271° West 82 94 9,100  Level Albuquerque Center
01:01PM 31.5653 -105.3231 276° West 83 96 9,100  Level Albuquerque Center
01:02PM 31.5669 -105.3503 274° West 83 96 9,100  Level Albuquerque Center
01:03PM 31.5686 -105.3806 274° West 80 92 9,100  Level Albuquerque Center
01:04PM 31.5756 -105.4039 289° West 77 89 9,100  Level Albuquerque Center
01:05PM 31.5825 -105.4294 288° West 81 93 9,100  Level Albuquerque Center
01:06PM 31.5858 -105.4525 280° West 76 87 9,200  Climbing Albuquerque Center
01:07PM 31.5950 -105.4761 295° West 78 90 9,200  Level Albuquerque Center
01:08PM 31.6008 -105.5019 285° West 80 92 9,200  Level Albuquerque Center
01:08PM 31.6003 -105.5069 263° West 83 96 9,200 -120 Level Albuquerque Center
01:09PM 31.6114 -105.5389 292° West 96 110 9,100 -120 Descending Albuquerque Center
01:10PM 31.6114 -105.5442 270° West 101 116 9,100  Level Albuquerque Center
01:10PM 31.6194 -105.5681 292° West 96 110 9,100  Level Albuquerque Center
01:10PM 31.6194 -105.5744 270° West 96 110 9,100 -120 Level Albuquerque Center
01:11PM 31.6283 -105.5967 295° West 94 108 9,000 -120 Descending Albuquerque Center
01:11PM 31.6289 -105.6019 277° West 93 107 9,000 -120 Level Albuquerque Center
01:12PM 31.6375 -105.6258 293° West 95 109 8,900 -120 Descending Albuquerque Center
01:12PM 31.6386 -105.6319 282° West 96 110 8,900  Level Albuquerque Center
01:13PM 31.6497 -105.6531 302° West 95 109 8,900  Level Albuquerque Center
01:14PM 31.6481 -105.6594 253° West 93 107 8,900 180 Level Albuquerque Center
01:14PM 31.6558 -105.6775 297° West 85 98 9,100 180 Climbing Albuquerque Center
01:14PM 31.6578 -105.6842 289° West 86 99 9,100 60 Level Albuquerque Center
01:15PM 31.6608 -105.7039 280° West 78 90 9,200 60 Climbing Albuquerque Center
01:15PM 31.6642 -105.7083 311° West 81 93 9,200 -120 Level Albuquerque Center
01:16PM 31.6747 -105.7342 296° West 85 98 9,100 -60 Descending Albuquerque Center
01:17PM 31.6825 -105.7633 287° West 94 108 9,100  Level Albuquerque Center
01:18PM 31.6850 -105.7622 21° North 92 106 9,100 -120 Level Albuquerque Center
01:18PM 31.6906 -105.7836 287° West 93 107 9,000 -240 Descending Albuquerque Center
01:19PM 31.6953 -105.7894 314° West 92 106 8,900 -540 Descending Albuquerque Center
01:19PM 31.7025 -105.8131 290° West 101 116 8,500 -540 Descending Albuquerque Center
01:20PM 31.7067 -105.8208 302° West 102 117 8,400 -480 Descending Albuquerque Center
01:20PM 31.7158 -105.8497 290° West 102 117 8,000 -600 Descending Albuquerque Center
01:21PM 31.7200 -105.8567 305° West 101 116 7,800 -420 Descending Albuquerque Center
01:21PM 31.7281 -105.8817 291° West 100 115 7,600 -300 Descending Albuquerque Center
01:22PM 31.7311 -105.8864 307° West 100 115 7,500  Descending Albuquerque Center
01:22PM 31.7369 -105.9069 288° West 90 104 7,600 60 Climbing Albuquerque Center
01:23PM 31.7400 -105.9119 306° West 90 104 7,600  Level Albuquerque Center
01:23PM 31.7458 -105.9319 289° West 85 98 7,600  Level Albuquerque Center
01:24PM 31.7503 -105.9386 308° West 90 104 7,600 -120 Level Albuquerque Center
01:24PM 31.7558 -105.9619 286° West 94 108 7,500 -120 Descending Albuquerque Center
01:25PM 31.7592 -105.9675 305° West 93 107 7,500  Level Albuquerque Center
01:25PM 31.7650 -105.9897 287° West 89 102 7,500 60 Level Albuquerque Center
01:26PM 31.7669 -105.9939 299° West 89 102 7,600 180 Climbing Albuquerque Center
01:26PM 31.7725 -106.0178 285° West 91 105 7,700  Climbing Albuquerque Center
01:27PM 31.7781 -106.0286 301° West 93 107 7,600 -120 Descending Albuquerque Center
01:27PM 31.7822 -106.0478 284° West 97 112 7,600  Level Albuquerque Center
01:28PM 31.7875 -106.0589 299° West 98 113 7,600 -120 Level Albuquerque Center
01:29PM 31.7919 -106.0778 285° West 99 114 7,500 -240 Descending Albuquerque Center
01:29PM 31.7969 -106.0886 299° West 98 113 7,400 -240 Descending Albuquerque Center
01:30PM 31.8014 -106.1056 287° West 97 112 7,300 -300 Descending Albuquerque Center
01:30PM 31.8053 -106.1167 292° West 93 107 7,100 -480 Descending Albuquerque Center
01:31PM 31.8081 -106.1414 278° West 92 106 6,800 -420 Descending Albuquerque Center
01:31PM 31.8108 -106.1469 300° West 94 108 6,700 -300 Descending Albuquerque Center
01:32PM 31.8117 -106.1731 272° West 96 110 6,500 -240 Descending Albuquerque Center
01:32PM 31.8136 -106.1775 297° West 94 108 6,500  Level Albuquerque Center
01:33PM 31.8122 -106.2003 266° West 85 98 6,500 -120 Level Albuquerque Center
01:33PM 31.8133 -106.2111 277° West 87 100 6,400 -420 Descending Albuquerque Center
01:34PM 31.8111 -106.2281 261° West 87 100 6,100 -540 Descending Albuquerque Center
01:34PM 31.8156 -106.2411 292° West 92 106 5,900 -360 Descending Albuquerque Center
01:35PM 31.8147 -106.2597 267° West 95 109 5,700 -300 Descending Albuquerque Center
01:35PM 31.8169 -106.2686 286° West 88 101 5,600 -360 Descending Albuquerque Center
01:36PM 31.8117 -106.2906 254° West 74 85 5,300 -300 Descending Albuquerque Center
01:36PM 31.8114 -106.2944 265° West 83 96 5,300 -420 Level Albuquerque Center
01:37PM 31.8086 -106.3086 257° West 71 82 5,000 -420 Descending Albuquerque Center
01:37PM 31.8067 -106.3200 259° West 81 93 4,900 -420 Descending Albuquerque Center
01:38PM 31.8028 -106.3353 253° West 77 89 4,600 -600 Descending Albuquerque Center
01:38PM 31.7972 -106.3511 248° West 81 93 4,300 -300 Descending Albuquerque Center
01:39PM 31.7950 -106.3622 257° West 82 94 4,300  Level Albuquerque Center
01:41PM 31.8000 -106.3667 291° West  Level FlightAware Approximate
01:48PM 31.8072 -106.3764 291° West  Level Estimated
01:49PM 31.8072 -106.3764 291° West  Level Estimated
01:50PM 31.8072 -106.3764 291° West  Level Estimated
01:51PM 31.8072 -106.3764 291° West  Level Estimated
01:52PM 31.8072 -106.3764 291° West  Level Estimated
01:53PM 31.8072 -106.3764 291° West  Level Estimated
01:54PM 31.8072 -106.3764 291° West  Level Estimated
01:55PM 31.8072 -106.3764 291° West  Level Estimated
01:56PM 31.8072 -106.3764 291° West  Level Estimated
01:57PM 31.8072 -106.3764 291° West  Level Estimated
01:58PM 31.8072 -106.3764 291° West  Level Estimated
01:59PM 31.8072 -106.3764 291° West  Level Estimated
02:00PM 31.8072 -106.3764 291° West  Level Estimated
02:01PM 31.8072 -106.3764 291° West  Level Estimated
02:02PM 31.8072 -106.3764 291° West  Level Estimated
02:03PM 31.8072 -106.3764 291° West  Level Estimated